嘉手納基地の過去48時間の天気

嘉手納基地 (Kadena ab)

現在時刻: 4/27 14:01 JST (4/27 05:01 UTC) 以下の時間は現地時間です。

過去48時間のMETAR気象情報
時間 風向 風速(m/s) 視程 気温(℃) 湿度(%) 気圧(hPa) 天気現象
27 12:56 北西 4 10km以上 24.5 58 1016.5
27 11:56 北西 5 10km以上 24.2 61 1016.9
27 10:56 北西 5 10km以上 23.8 60 1017.2
27 09:56 西北西 4 10km以上 23.5 62 1017.2
27 08:56 西 4 10km以上 22.8 65 1016.5
27 07:56 西北西 2 10km以上 21.9 71 1016.2
27 06:56 静穏 0 10km以上 18.9 89 1015.9
27 05:56 静穏 0 10km以上 15.8 89 1015.2
27 04:56 静穏 0 10km以上 16.2 89 1014.5
27 03:56 静穏 0 10km以上 17 85 1014.2
27 02:56 静穏 0 10km以上 16.1 87 1014.5
27 00:56 静穏 0 10km以上 16.5 86 1014.9
26 23:56 静穏 0 10km以上 17.1 85 1015.2
26 22:56 静穏 0 10km以上 19.6 75 1015.5
26 21:56 静穏 0 10km以上 20.5 72 1015.8
26 20:56 静穏 0 10km以上 20.8 70 1015.2
26 19:56 西北西 2 10km以上 20.7 70 1014.5
26 19:16 西北西 2 10km以上 21 69 1014.2
26 18:56 西北西 3 10km以上 21.1 69 1013.8
26 17:56 西 5 10km以上 22.1 65 1013.5
26 17:36 西北西 4 10km以上 22 65 1013.5
26 17:06 西 4 10km以上 23 61 1013.1
26 16:56 西 3 10km以上 22.8 64 1013.1
26 16:16 西北西 4 10km以上 23 65 1013.5
26 15:56 西 6 10km以上 23 63 1013.5
26 14:56 西南西 6 10km以上 23.5 63 1013.8
26 13:56 西 5 10km以上 23.7 63 1014.1
26 12:56 西南西 4 10km以上 23.3 64 1014.5
26 11:56 西南西 4 10km以上 23.8 61 1014.8
26 10:56 西南西 4 10km以上 22.9 62 1014.8
26 09:56 西 2 10km以上 22.5 62 1014.8
26 08:56 西南西 2 10km以上 22.3 62 1014.8
26 07:56 北北西 2 10km以上 21.2 63 1014.5
26 06:56 静穏 0 10km以上 19 77 1014.2
26 05:56 静穏 0 10km以上 16.5 83 1013.5
26 04:56 静穏 0 10km以上 18.6 73 1012.8
RODN 270356Z AUTO 31008KT 10SM FEW170 SCT200 25/16 A3000 RMK AO2 SLP165 T02450157 $
RODN 270256Z AUTO 31010KT 10SM CLR 24/16 A3001 RMK AO2 SLP169 T02420162 50004 $
RODN 270156Z AUTO 32009KT 10SM SCT033 24/16 A3002 RMK AO2 SLP172 T02380155 $
RODN 270056Z AUTO 30007KT 10SM FEW030 24/16 A3002 RMK AO2 SLP172 T02350158 $
RODN 262356Z AUTO 28007KT 10SM FEW028 23/16 A3000 RMK AO2 SLP165 T02280159 10228 20156 52016 $
RODN 262256Z AUTO 29004KT 10SM CLR 22/16 A2999 RMK AO2 SLP162 T02190164 $
RODN 262156Z AUTO 00000KT 10SM CLR 19/17 A2998 RMK AO2 SLP159 T01890170 $
RODN 262056Z AUTO 00000KT 10SM CLR 16/14 A2996 RMK AO2 SLP152 T01580140 53006 $
RODN 261956Z AUTO 00000KT 10SM FEW024 FEW036 16/14 A2994 RMK AO2 SLP145 T01620144 $
RODN 261856Z AUTO 00000KT 10SM CLR 17/14 A2993 RMK AO2 SLP142 T01700144 $
RODN 261756Z AUTO 00000KT 10SM CLR 16/14 A2994 RMK AO2 SLP145 T01610139 10207 20161 57008 $
RODN 261556Z AUTO 00000KT 10SM CLR 17/14 A2995 RMK AO2 SLP149 T01650141 $
RODN 261456Z AUTO 00000KT 10SM CLR 17/15 A2996 RMK AO2 SLP152 T01710145 402400154 50000 $
RODN 261356Z AUTO 00000KT 10SM CLR 20/15 A2997 RMK AO2 SLP155 T01960150 $
RODN 261256Z AUTO 00000KT 10SM CLR 21/15 A2998 RMK AO2 SLP158 T02050153 $
RODN 261156Z AUTO 00000KT 10SM FEW029 21/15 A2996 RMK AO2 SLP152 T02080151 10237 20206 52016 $
RODN 261056Z AUTO 30004KT 10SM CLR 21/15 A2994 RMK AO2 SLP145 T02070150 $
RODN 261016Z AUTO 30004KT 10SM SCT029 21/15 A2993 RMK AO2 SLP142 $
RODN 260956Z AUTO 29006KT 10SM BKN029 21/15 A2992 RMK AO2 SLP138 T02110152 $
RODN 260856Z AUTO 28009KT 10SM BKN029 22/15 A2991 RMK AO2 SLP135 T02210152 55002 $
RODN 260836Z AUTO 29007KT 10SM BKN029 22/15 A2991 RMK AO2 SLP135 $
RODN 260806Z AUTO 26008KT 10SM BKN030 23/15 A2990 RMK AO2 SLP131 $
RODN 260756Z AUTO 28006KT 10SM BKN029 23/16 A2990 RMK AO2 SLP131 T02280156 $
RODN 260716Z AUTO 29007KT 10SM OVC029 23/16 A2991 RMK AO2 OVC V BKN SLP135 $
RODN 260656Z AUTO 27011KT 10SM BKN029 23/16 A2991 RMK AO2 BKN V SCT SLP135 T02300156 $
RODN 260556Z AUTO 25012KT 10SM SCT029 24/16 A2992 RMK AO2 SLP138 T02350160 10240 20216 57009 $
RODN 260456Z AUTO 27010G15KT 10SM FEW030 SCT180 24/16 A2993 RMK AO2 SLP141 T02370162 $
RODN 260356Z AUTO 24008KT 10SM FEW032 FEW150 SCT180 SCT200 23/16 A2994 RMK AO2 SLP145 T02330161 $
RODN 260256Z AUTO 25008KT 10SM SCT033 SCT110 24/16 A2995 RMK AO2 SLP148 T02380158 50001 $
RODN 260156Z AUTO 25007KT 10SM BKN032 OVC190 23/15 A2995 RMK AO2 SLP148 T02290152 $
RODN 260056Z AUTO 28003KT 10SM CLR 23/15 A2995 RMK AO2 SLP148 T02250148 $
RODN 252356Z AUTO 24004KT 10SM CLR 22/15 A2995 RMK AO2 SLP148 T02230147 10224 20154 52013 $
RODN 252256Z AUTO 33003KT 10SM CLR 21/14 A2994 RMK AO2 SLP145 T02120139 $
RODN 252156Z AUTO 00000KT 10SM CLR 19/15 A2993 RMK AO2 SLP142 T01900149 $
RODN 252056Z AUTO 00000KT 10SM BKN034 17/14 A2991 RMK AO2 SLP135 T01650136 53011 $
RODN 251956Z AUTO 00000KT 10SM SCT034 19/14 A2989 RMK AO2 SLP128 T01860137 $